Holtsville, NY (11742)

2:28 AM EDT on July 31, 2016 (GMT -0400)
Cherry ave | | Change Station

Elev 90 ft 40.82 °N, 73.03 °W | Updated 4 seconds ago

Mostly Cloudy
Mostly Cloudy
72.7 °F
Feels Like 72.7 °F
N
0.0
Wind Variable Wind from East
Gusts 2.0 mph

Today
High -- | Low -- °F
--% Chance of Precip.
Yesterday
High -- | Low -- °F
Precip. -- in
Pressure 30.01 in
Visibility 7.0 miles
Clouds Mostly Cloudy 10000 ft
Dew Point 72 °F
Humidity 97%
Rainfall Not available.
Snow Depth Not available.
5:48 AM 8:08 PM
Waning Crescent, 8% visible
METAR KISP 310556Z AUTO 05003KT 7SM BKN100 23/22 A3001 RMK AO2 RAB05E12 SLP162 P0000 60000 T02330222 10239 20233 58012
Pressure 30.01 in
Visibility 7.0 miles
Clouds Mostly Cloudy 10000 ft
Dew Point 72 °F
Humidity 97%
Rainfall Not available.
Snow Depth Not available.
5:48 AM 8:08 PM
Waning Crescent, 8% visible
METAR KISP 310556Z AUTO 05003KT 7SM BKN100 23/22 A3001 RMK AO2 RAB05E12 SLP162 P0000 60000 T02330222 10239 20233 58012

10-Day Weather Forecast

Almanac

Astronomy

Jul. 31, 2016 Rise Set
Actual Time
Civil Twilight
Nautical Twilight
Astronomical Twilight
Moon
Length of Visible Light
Length of Day
Tomorrow will be .
, % of the Moon is Illuminated

Today's Extremes

State Highs State Lows

Community

WunderPhotos

Upload Photos

1,928,766 photos uploaded!

WunderBlog® & News

Nearby

Air Quality

  Air Quality AQ Index Pollutant
Not available.

Snow Depth

Station Depth Elevation

Earthquake Activity

City Distance Mag. Time & Date
Minimum magnitude displayed is 2.5.

Coastal Water Temperatures

Place Temperature

Stations

Nearby Weather Stations

Station Location Temp. Windchill Dew Point Humidity Wind Precip. Elev Updated Type
                   

Watches & Warnings

There are currently no watches in effect.